Time;durP1;ratioP1;P1;durP2;ratioP2;P2;SDS_P1;SDS_P2;PMS_P1;PMS_P2;Temp;Humidity;BMP_temperature;BMP_pressure;BME280_temperature;BME280_humidity;BME280_pressure;Samples;Min_cycle;Max_cycle;Signal;HPM_P1;HPM_P2
2022/05/08 00:01:21;;;;;;;32.90;4.00;;;38.00;14.70;;;;;;5014928;28;20029;-65
2022/05/08 00:03:48;;;;;;;45.80;5.00;;;38.10;15.00;;;;;;5013912;28;20148;-67
2022/05/08 00:06:14;;;;;;;31.42;3.85;;;38.10;14.80;;;;;;5014874;28;20071;-67
2022/05/08 00:08:40;;;;;;;25.35;4.30;;;38.00;14.90;;;;;;5015209;28;20041;-66
2022/05/08 00:11:07;;;;;;;41.70;4.78;;;37.90;14.40;;;;;;5012182;28;20033;-67
2022/05/08 00:13:35;;;;;;;44.22;5.03;;;37.40;14.70;;;;;;5011891;28;20021;-68
2022/05/08 00:16:02;;;;;;;17.77;3.28;;;37.20;14.40;;;;;;5012092;28;20033;-69
2022/05/08 00:18:29;;;;;;;26.58;3.90;;;37.20;14.50;;;;;;5013323;28;20029;-67
2022/05/08 00:20:55;;;;;;;26.73;3.95;;;37.30;14.20;;;;;;5013389;28;20030;-68
2022/05/08 00:23:21;;;;;;;16.67;3.20;;;37.40;14.10;;;;;;5014583;28;20476;-66
2022/05/08 00:25:48;;;;;;;45.78;4.20;;;37.30;14.10;;;;;;5012645;28;20030;-67
2022/05/08 00:28:14;;;;;;;30.38;3.58;;;37.10;13.70;;;;;;5015763;28;20026;-68
2022/05/08 00:30:41;;;;;;;39.85;3.67;;;37.00;13.50;;;;;;5013663;28;20476;-67
2022/05/08 00:33:07;;;;;;;31.20;3.78;;;36.80;13.40;;;;;;5012734;28;20029;-66
2022/05/08 00:35:34;;;;;;;24.58;3.42;;;36.90;13.90;;;;;;5016809;28;20021;-66
2022/05/08 00:38:00;;;;;;;16.35;3.55;;;36.70;13.40;;;;;;5025941;28;20419;-67
2022/05/08 00:40:27;;;;;;;13.38;3.35;;;36.70;13.50;;;;;;5015647;28;20026;-67
2022/05/08 00:42:53;;;;;;;20.52;3.55;;;36.70;13.50;;;;;;5019255;28;20018;-67
2022/05/08 00:45:19;;;;;;;25.35;3.42;;;36.50;13.30;;;;;;5017296;28;20025;-68
2022/05/08 00:47:46;;;;;;;23.98;3.88;;;36.50;13.30;;;;;;5023828;28;20029;-68
2022/05/08 00:50:12;;;;;;;16.50;3.70;;;36.50;13.60;;;;;;5018413;28;20713;-67
2022/05/08 00:52:39;;;;;;;30.92;3.95;;;36.50;13.50;;;;;;5017101;28;20037;-67
2022/05/08 00:55:06;;;;;;;29.98;3.67;;;36.60;13.30;;;;;;5018020;28;20042;-66
2022/05/08 00:57:35;;;;;;;29.13;3.40;;;36.40;13.00;;;;;;5018014;28;20029;-66
2022/05/08 01:00:04;;;;;;;18.17;2.90;;;36.40;12.90;;;;;;5017519;28;20125;-66
2022/05/08 01:02:31;;;;;;;32.40;4.25;;;36.30;13.10;;;;;;5021283;28;20025;-66
2022/05/08 01:04:57;;;;;;;22.88;3.33;;;36.30;13.80;;;;;;5019005;28;20037;-66
2022/05/08 01:07:25;;;;;;;22.73;3.00;;;36.20;13.00;;;;;;5017748;28;20025;-67
2022/05/08 01:09:53;;;;;;;17.58;3.72;;;35.80;12.70;;;;;;5018725;28;20022;-66
2022/05/08 01:12:21;;;;;;;26.35;3.50;;;35.70;13.20;;;;;;5014783;28;20074;-67
2022/05/08 01:15:12;;;;;;;31.77;3.92;;;35.60;13.70;;;;;;5001406;28;20512;-66
2022/05/08 01:17:38;;;;;;;15.70;3.22;;;35.40;13.90;;;;;;5018622;28;20037;-66
2022/05/08 01:20:05;;;;;;;32.00;3.65;;;35.30;13.90;;;;;;5018664;28;20054;-71
2022/05/08 01:22:32;;;;;;;28.02;3.35;;;35.10;13.50;;;;;;5017617;28;20047;-68
2022/05/08 01:25:03;;;;;;;39.25;3.60;;;35.00;13.80;;;;;;5014850;28;20038;-67
2022/05/08 01:27:29;;;;;;;18.88;2.97;;;34.80;14.20;;;;;;5018150;28;20094;-64
2022/05/08 01:29:57;;;;;;;16.45;3.33;;;34.60;14.40;;;;;;5015800;28;20055;-65
2022/05/08 01:32:23;;;;;;;26.42;3.25;;;34.70;14.30;;;;;;5015780;28;20081;-67
2022/05/08 01:34:50;;;;;;;30.90;3.78;;;34.60;14.00;;;;;;5023322;28;20075;-69
2022/05/08 01:37:16;;;;;;;19.60;3.30;;;34.60;14.00;;;;;;5013235;28;20042;-68
2022/05/08 01:39:42;;;;;;;28.23;2.80;;;34.50;14.00;;;;;;5014089;28;20067;-70
2022/05/08 01:42:09;;;;;;;12.85;3.13;;;34.20;14.20;;;;;;5014947;28;20042;-69
2022/05/08 01:44:36;;;;;;;17.88;2.72;;;34.10;14.30;;;;;;5017487;28;20062;-67
2022/05/08 01:49:47;;;;;;;21.10;3.00;;;34.00;14.30;;;;;;5016402;28;21376;-70
2022/05/08 01:52:13;;;;;;;16.95;2.78;;;34.00;14.30;;;;;;5015189;28;20048;-70
2022/05/08 01:54:39;;;;;;;17.20;3.80;;;33.90;14.20;;;;;;5015772;28;20068;-71
2022/05/08 01:57:06;;;;;;;24.40;3.30;;;33.90;14.20;;;;;;5024170;28;20098;-69
2022/05/08 01:59:32;;;;;;;22.98;2.90;;;33.70;14.10;;;;;;5016413;28;20058;-68
2022/05/08 02:01:59;;;;;;;13.68;2.95;;;33.60;14.70;;;;;;5027027;28;20074;-67
2022/05/08 02:04:25;;;;;;;19.83;3.50;;;33.50;14.10;;;;;;5014198;28;20195;-68
2022/05/08 02:06:51;;;;;;;24.45;4.00;;;33.40;14.40;;;;;;5014750;28;20060;-67
2022/05/08 02:09:18;;;;;;;30.55;3.67;;;33.30;14.40;;;;;;5016687;28;20059;-68
2022/05/08 02:11:44;;;;;;;21.98;3.28;;;33.20;13.60;;;;;;5014330;28;20402;-70
2022/05/08 02:14:11;;;;;;;21.77;3.28;;;33.10;13.40;;;;;;5015683;28;20064;-68
2022/05/08 02:16:37;;;;;;;21.35;3.05;;;33.00;13.50;;;;;;5015481;28;20073;-68
2022/05/08 02:19:03;;;;;;;23.00;3.88;;;32.90;13.40;;;;;;5012835;28;20126;-70
2022/05/08 02:21:30;;;;;;;11.43;3.08;;;32.80;13.50;;;;;;5015835;28;20093;-68
2022/05/08 02:23:56;;;;;;;13.75;4.18;;;32.70;13.70;;;;;;5017139;28;20055;-69
2022/05/08 02:26:22;;;;;;;15.40;3.03;;;32.60;13.70;;;;;;5012566;28;20061;-69
2022/05/08 02:28:49;;;;;;;30.75;3.95;;;32.50;13.80;;;;;;5014787;28;20080;-70
2022/05/08 02:31:15;;;;;;;25.80;3.40;;;32.50;14.10;;;;;;5012929;28;20061;-68
2022/05/08 02:33:42;;;;;;;25.33;3.22;;;32.40;14.50;;;;;;5024037;28;20523;-69
2022/05/08 02:36:09;;;;;;;31.45;3.50;;;32.30;14.60;;;;;;5019889;28;20080;-69
2022/05/08 02:38:37;;;;;;;22.70;3.45;;;32.20;14.90;;;;;;5019549;28;20064;-69
2022/05/08 02:41:03;;;;;;;33.42;3.58;;;32.10;14.90;;;;;;5013886;28;20057;-69
2022/05/08 02:43:30;;;;;;;31.92;3.85;;;32.00;15.00;;;;;;5016292;28;20063;-64
2022/05/08 02:45:59;;;;;;;37.22;4.93;;;31.90;15.30;;;;;;5013673;28;20149;-66
2022/05/08 02:48:27;;;;;;;27.95;3.85;;;31.90;15.30;;;;;;5016686;28;20068;-68
2022/05/08 02:50:53;;;;;;;23.10;3.92;;;31.80;15.50;;;;;;5013611;28;20052;-69
2022/05/08 02:53:20;;;;;;;31.92;4.80;;;31.70;15.40;;;;;;5014368;28;20178;-67
2022/05/08 02:58:34;;;;;;;46.20;5.78;;;31.50;15.60;;;;;;5014001;28;20073;-67
2022/05/08 03:01:03;;;;;;;36.10;3.97;;;31.30;15.80;;;;;;5014274;28;20400;-67
2022/05/08 03:03:30;;;;;;;30.38;3.33;;;31.30;15.40;;;;;;5022616;28;20075;-69
2022/05/08 03:05:56;;;;;;;47.85;4.75;;;31.20;15.40;;;;;;5014207;28;20139;-67
2022/05/08 03:08:23;;;;;;;43.63;3.88;;;31.20;15.30;;;;;;5013788;28;20072;-69
2022/05/08 03:13:39;;;;;;;43.58;4.68;;;31.10;15.40;;;;;;5015274;28;20434;-68
2022/05/08 03:16:07;;;;;;;39.75;3.75;;;31.00;15.50;;;;;;5010561;28;20171;-67
2022/05/08 03:18:35;;;;;;;31.42;4.30;;;31.00;15.20;;;;;;5013316;28;20077;-69
2022/05/08 03:21:02;;;;;;;42.97;4.18;;;30.90;15.50;;;;;;5015727;28;20041;-67
2022/05/08 03:23:28;;;;;;;32.65;3.80;;;30.90;15.80;;;;;;5017015;28;20052;-67
2022/05/08 03:25:55;;;;;;;47.88;3.95;;;30.80;16.20;;;;;;5026572;28;20079;-68
2022/05/08 03:28:21;;;;;;;56.47;3.80;;;30.70;16.20;;;;;;5012098;28;20061;-68
2022/05/08 03:30:48;;;;;;;55.47;4.60;;;30.60;16.40;;;;;;5012144;28;20649;-66
2022/05/08 03:33:15;;;;;;;48.40;3.92;;;30.60;16.70;;;;;;5020091;28;20105;-67
2022/05/08 03:35:42;;;;;;;53.40;4.53;;;30.50;16.70;;;;;;5017637;28;20056;-67
2022/05/08 03:38:08;;;;;;;40.70;4.65;;;30.40;16.80;;;;;;5012874;28;20056;-68
2022/05/08 03:40:36;;;;;;;48.55;4.60;;;30.30;17.00;;;;;;5021948;28;20095;-67
2022/05/08 03:43:03;;;;;;;39.55;4.13;;;30.30;17.00;;;;;;5011657;28;20052;-69
2022/05/08 03:45:30;;;;;;;45.50;4.28;;;30.30;17.30;;;;;;5020104;28;20059;-68
2022/05/08 03:47:59;;;;;;;38.25;3.67;;;30.20;17.30;;;;;;5014429;28;20134;-68
2022/05/08 03:50:26;;;;;;;42.47;3.90;;;30.20;17.00;;;;;;5011772;28;20092;-69
2022/05/08 03:52:52;;;;;;;25.95;5.20;;;30.10;17.10;;;;;;5013372;28;20416;-69
2022/05/08 03:55:19;;;;;;;35.58;4.40;;;30.10;15.70;;;;;;5012021;28;20131;-67
2022/05/08 03:57:46;;;;;;;27.88;3.83;;;30.20;15.80;;;;;;5012052;28;20050;-67
2022/05/08 04:00:14;;;;;;;36.70;3.50;;;30.10;16.20;;;;;;5014068;28;20053;-67
2022/05/08 04:02:41;;;;;;;30.30;3.63;;;30.10;16.20;;;;;;5017307;28;20058;-67
2022/05/08 04:05:10;;;;;;;34.67;3.83;;;30.00;15.80;;;;;;5015412;28;20150;-68
2022/05/08 04:07:40;;;;;;;23.08;2.85;;;30.00;16.00;;;;;;5016295;28;20060;-67
2022/05/08 04:10:08;;;;;;;27.45;3.55;;;29.90;15.30;;;;;;5040807;28;20686;-68
2022/05/08 04:12:36;;;;;;;18.85;2.78;;;29.80;15.00;;;;;;5016535;28;20069;-66
2022/05/08 04:15:03;;;;;;;13.13;2.45;;;29.80;14.50;;;;;;5012955;28;20075;-66
2022/05/08 04:17:30;;;;;;;15.02;3.17;;;29.80;14.30;;;;;;5014349;28;20143;-68
2022/05/08 04:19:56;;;;;;;24.20;3.25;;;29.80;14.60;;;;;;5008656;28;20140;-67
2022/05/08 04:25:08;;;;;;;21.23;2.83;;;29.80;15.20;;;;;;5014169;28;20523;-68
2022/05/08 04:27:37;;;;;;;22.77;2.70;;;29.70;15.20;;;;;;5016410;28;20101;-67
2022/05/08 04:30:05;;;;;;;17.27;2.65;;;29.60;15.10;;;;;;5010523;28;20058;-69
2022/05/08 04:32:31;;;;;;;19.13;3.00;;;29.50;15.10;;;;;;5016110;28;20061;-67
2022/05/08 04:34:57;;;;;;;18.48;2.78;;;29.50;15.20;;;;;;5010698;28;20162;-67
2022/05/08 04:37:24;;;;;;;8.48;2.38;;;29.40;14.60;;;;;;5012748;28;20108;-69
2022/05/08 04:39:50;;;;;;;13.10;1.95;;;29.40;14.80;;;;;;5014257;28;20056;-67
2022/05/08 04:42:17;;;;;;;6.55;2.00;;;29.30;15.00;;;;;;5016076;28;20147;-69
2022/05/08 04:44:43;;;;;;;11.18;2.30;;;29.30;14.90;;;;;;5021942;28;20548;-67
2022/05/08 04:47:10;;;;;;;8.10;2.00;;;29.40;15.00;;;;;;5017464;28;20419;-64
2022/05/08 04:49:36;;;;;;;10.10;2.20;;;29.40;14.60;;;;;;4998916;28;20558;-68
2022/05/08 04:52:03;;;;;;;7.68;2.13;;;29.60;14.70;;;;;;5012623;28;20072;-66
2022/05/08 04:54:29;;;;;;;14.00;2.63;;;29.60;14.50;;;;;;5011338;28;20187;-64
2022/05/08 04:56:56;;;;;;;12.18;2.15;;;29.60;14.60;;;;;;5021535;28;20066;-64
2022/05/08 04:59:22;;;;;;;6.63;2.40;;;29.50;14.40;;;;;;4998136;28;20052;-64
2022/05/08 05:01:49;;;;;;;10.45;2.40;;;29.50;14.50;;;;;;5013362;28;20169;-66
2022/05/08 05:04:16;;;;;;;121.75;7.22;;;29.50;14.60;;;;;;5012663;28;20159;-65
2022/05/08 05:06:44;;;;;;;13.85;2.42;;;29.40;14.80;;;;;;5014755;28;20076;-65
2022/05/08 05:09:10;;;;;;;23.20;3.25;;;29.30;14.70;;;;;;4996665;28;20058;-67
2022/05/08 05:11:36;;;;;;;12.20;2.63;;;29.30;14.70;;;;;;5011822;28;20055;-68
2022/05/08 05:14:03;;;;;;;13.73;2.30;;;29.20;14.40;;;;;;5012717;28;20078;-65
2022/05/08 05:16:29;;;;;;;28.08;2.70;;;29.30;14.30;;;;;;5013077;28;20108;-66
2022/05/08 05:18:55;;;;;;;5.90;2.17;;;29.20;14.40;;;;;;5017726;28;20058;-65
2022/05/08 05:21:22;;;;;;;10.55;2.35;;;29.10;14.60;;;;;;5022123;28;20058;-67
2022/05/08 05:23:48;;;;;;;15.13;2.63;;;29.10;14.80;;;;;;5019042;28;20500;-67
2022/05/08 05:26:15;;;;;;;14.73;2.95;;;29.00;15.30;;;;;;5024357;28;20064;-66
2022/05/08 05:28:43;;;;;;;16.25;2.80;;;29.00;15.90;;;;;;5023593;28;20097;-65
2022/05/08 05:31:09;;;;;;;11.35;2.97;;;29.00;16.10;;;;;;5025787;28;20063;-66
2022/05/08 05:33:36;;;;;;;22.52;3.58;;;28.90;16.50;;;;;;5022555;28;20082;-65
2022/05/08 05:36:02;;;;;;;19.20;3.60;;;28.70;16.20;;;;;;5022661;28;20056;-65
2022/05/08 05:38:28;;;;;;;27.63;4.18;;;28.70;16.70;;;;;;5022111;28;20078;-67
2022/05/08 05:40:55;;;;;;;19.25;3.40;;;28.70;16.80;;;;;;5024269;28;20441;-65
2022/05/08 05:43:21;;;;;;;29.88;4.05;;;28.70;16.80;;;;;;5023625;28;20576;-65
2022/05/08 05:47:49;;;;;;;34.58;4.57;;;28.50;17.40;;;;;;5021859;28;20681;-65
2022/05/08 05:48:38;;;;;;;37.30;5.70;;;28.50;17.80;;;;;;5025449;28;20071;-67
2022/05/08 05:51:05;;;;;;;49.28;6.20;;;28.40;18.40;;;;;;5003975;28;20510;-65
2022/05/08 05:53:33;;;;;;;41.92;5.30;;;28.30;18.60;;;;;;5022185;28;20103;-67
2022/05/08 05:56:00;;;;;;;43.92;6.22;;;28.30;18.80;;;;;;5025695;28;20068;-65
2022/05/08 05:58:26;;;;;;;32.72;4.90;;;28.10;18.90;;;;;;5024533;28;20083;-65
2022/05/08 06:00:52;;;;;;;35.80;5.90;;;28.10;19.20;;;;;;5025070;28;20124;-65
2022/05/08 06:03:19;;;;;;;30.38;5.47;;;27.90;19.10;;;;;;5020876;28;20545;-66
2022/05/08 06:05:46;;;;;;;39.13;5.43;;;27.80;19.10;;;;;;5006282;28;20097;-64
2022/05/08 06:08:13;;;;;;;34.63;5.13;;;27.60;19.30;;;;;;5023659;28;20122;-64
2022/05/08 06:10:39;;;;;;;35.25;4.82;;;27.50;19.60;;;;;;5021074;28;20067;-64
2022/05/08 06:13:05;;;;;;;52.13;6.03;;;27.50;19.50;;;;;;5022842;28;20064;-64
2022/05/08 06:15:32;;;;;;;55.05;6.80;;;27.40;19.40;;;;;;5021816;28;21488;-65
2022/05/08 06:17:58;;;;;;;50.30;7.32;;;27.30;20.00;;;;;;5023231;28;20596;-65
2022/05/08 06:20:25;;;;;;;53.47;6.63;;;27.20;20.20;;;;;;5022771;28;20072;-65
2022/05/08 06:22:51;;;;;;;51.17;6.95;;;27.10;20.40;;;;;;5020468;28;20064;-65
2022/05/08 06:25:17;;;;;;;30.90;4.97;;;27.00;20.40;;;;;;5024061;28;20084;-65
2022/05/08 06:27:44;;;;;;;37.20;5.20;;;26.90;17.60;;;;;;5020364;28;20080;-65
2022/05/08 06:30:11;;;;;;;20.55;4.03;;;27.00;18.00;;;;;;5023052;28;20070;-66
2022/05/08 06:32:37;;;;;;;12.38;2.92;;;27.00;16.40;;;;;;5025153;28;20066;-65
2022/05/08 06:35:04;;;;;;;19.83;2.70;;;27.10;13.90;;;;;;5019926;28;20427;-66
2022/05/08 06:37:30;;;;;;;15.65;2.72;;;27.20;13.20;;;;;;5022290;28;20098;-67
2022/05/08 06:39:56;;;;;;;10.75;2.33;;;27.40;12.50;;;;;;5022966;28;20079;-65
2022/05/08 06:42:23;;;;;;;18.80;2.45;;;27.50;12.20;;;;;;5020961;28;20565;-65
2022/05/08 06:44:49;;;;;;;17.77;2.50;;;27.70;11.80;;;;;;5021031;28;20068;-63
2022/05/08 06:47:15;;;;;;;12.73;2.75;;;27.80;11.70;;;;;;5023698;28;20119;-65
2022/05/08 06:49:42;;;;;;;17.65;3.38;;;27.80;11.60;;;;;;5021908;28;20457;-64
2022/05/08 06:52:08;;;;;;;16.08;3.97;;;27.90;11.40;;;;;;5022086;28;20531;-65
2022/05/08 06:54:35;;;;;;;28.67;3.90;;;27.90;11.30;;;;;;5023914;28;20509;-65
2022/05/08 06:57:01;;;;;;;10.70;2.20;;;27.90;10.90;;;;;;5021474;28;20079;-64
2022/05/08 07:02:13;;;;;;;12.57;2.03;;;27.90;10.30;;;;;;5021512;28;20069;-65
2022/05/08 07:04:39;;;;;;;12.00;1.80;;;28.00;10.10;;;;;;5022379;28;20055;-65
2022/05/08 07:07:06;;;;;;;14.20;2.40;;;28.00;10.10;;;;;;5021219;28;20089;-66
2022/05/08 07:09:35;;;;;;;9.18;2.50;;;28.10;10.10;;;;;;5024332;28;20059;-64
2022/05/08 07:12:01;;;;;;;6.43;2.10;;;28.10;10.00;;;;;;5023323;28;20066;-64
2022/05/08 07:14:28;;;;;;;20.10;2.55;;;28.00;9.80;;;;;;5021198;28;20086;-64
2022/05/08 07:16:54;;;;;;;10.98;2.40;;;28.00;9.80;;;;;;5022786;28;20070;-63
2022/05/08 07:19:21;;;;;;;13.60;2.35;;;28.00;10.20;;;;;;5022421;28;20073;-64
2022/05/08 07:21:47;;;;;;;14.02;2.13;;;28.00;10.00;;;;;;5020427;28;20496;-65
2022/05/08 07:24:13;;;;;;;15.48;2.40;;;28.00;10.10;;;;;;5020547;28;20062;-63
2022/05/08 07:26:41;;;;;;;16.58;2.08;;;27.90;10.10;;;;;;5018101;28;20070;-65
2022/05/08 07:29:08;;;;;;;14.68;2.65;;;27.80;10.70;;;;;;5018940;28;20158;-63
2022/05/08 07:31:34;;;;;;;15.20;3.00;;;27.70;10.10;;;;;;5019779;28;20067;-63
2022/05/08 07:36:45;;;;;;;14.90;3.58;;;27.60;10.40;;;;;;5022699;28;20542;-63
2022/05/08 07:39:12;;;;;;;14.25;4.25;;;27.60;10.60;;;;;;5020287;28;20088;-64
2022/05/08 07:41:38;;;;;;;10.77;4.75;;;27.50;10.30;;;;;;5020470;28;20060;-65
2022/05/08 07:44:05;;;;;;;10.23;3.17;;;27.40;10.10;;;;;;5019394;28;20071;-64
2022/05/08 07:46:31;;;;;;;13.55;2.88;;;27.40;10.10;;;;;;5020033;28;20126;-65
2022/05/08 07:48:58;;;;;;;16.00;2.58;;;27.30;10.30;;;;;;5019170;28;20094;-65
2022/05/08 07:51:24;;;;;;;17.13;2.50;;;27.30;10.70;;;;;;5017789;28;20071;-66
2022/05/08 07:53:51;;;;;;;12.98;3.35;;;27.20;10.80;;;;;;5019207;28;20132;-65
2022/05/08 07:56:17;;;;;;;16.15;3.15;;;27.20;10.90;;;;;;5020393;28;20129;-65
2022/05/08 07:58:44;;;;;;;25.30;2.67;;;27.10;11.00;;;;;;5021181;28;20079;-65
2022/05/08 08:01:10;;;;;;;24.58;3.40;;;27.10;10.90;;;;;;5017317;28;20097;-64
2022/05/08 08:03:37;;;;;;;34.70;4.32;;;27.10;10.00;;;;;;5020046;28;20465;-66
2022/05/08 08:06:04;;;;;;;31.63;4.63;;;27.10;9.50;;;;;;5017547;28;20077;-67
2022/05/08 08:08:30;;;;;;;33.33;4.47;;;27.10;9.50;;;;;;5020236;28;20081;-66
2022/05/08 08:10:59;;;;;;;46.13;4.45;;;27.10;9.50;;;;;;5020199;28;20074;-66
2022/05/08 08:13:29;;;;;;;42.92;3.95;;;27.10;9.40;;;;;;5004728;28;20571;-66
2022/05/08 08:15:56;;;;;;;38.00;4.32;;;27.00;9.50;;;;;;5005647;28;20533;-67
2022/05/08 08:18:22;;;;;;;36.55;4.13;;;27.00;9.60;;;;;;5002585;28;20115;-66
2022/05/08 08:20:49;;;;;;;40.05;3.88;;;26.90;9.50;;;;;;5019143;28;20097;-69
2022/05/08 08:23:15;;;;;;;33.70;3.90;;;27.00;9.70;;;;;;5021534;28;20530;-66
2022/05/08 08:25:43;;;;;;;44.80;4.60;;;26.90;9.50;;;;;;5021030;28;20070;-67
2022/05/08 08:28:09;;;;;;;38.50;5.15;;;26.90;9.50;;;;;;5016626;28;20119;-66
2022/05/08 08:30:36;;;;;;;41.35;4.72;;;26.90;9.70;;;;;;5043808;28;20515;-65
2022/05/08 08:33:03;;;;;;;52.55;5.28;;;26.80;9.60;;;;;;5022169;28;20077;-66
2022/05/08 08:35:30;;;;;;;44.60;5.22;;;26.80;9.70;;;;;;5002099;28;20134;-69
2022/05/08 08:37:56;;;;;;;43.75;5.65;;;26.80;9.70;;;;;;5021550;28;20209;-68
2022/05/08 08:40:23;;;;;;;53.65;5.22;;;26.80;9.60;;;;;;5022498;28;20075;-67
2022/05/08 08:42:51;;;;;;;53.80;6.00;;;26.80;10.10;;;;;;5023161;28;20066;-66
2022/05/08 08:48:09;;;;;;;66.00;6.35;;;26.70;9.50;;;;;;5024701;28;20574;-66
2022/05/08 08:50:36;;;;;;;55.67;6.47;;;26.70;9.60;;;;;;5023711;28;20204;-67
2022/05/08 08:53:04;;;;;;;68.60;6.65;;;26.70;9.30;;;;;;5021264;28;20105;-69
2022/05/08 08:55:31;;;;;;;64.63;6.50;;;26.70;8.80;;;;;;5022393;28;20093;-67
2022/05/08 08:57:58;;;;;;;75.60;5.78;;;26.80;8.70;;;;;;5022589;28;20069;-67
2022/05/08 09:00:24;;;;;;;39.22;4.95;;;26.80;8.80;;;;;;5022013;28;20077;-65
2022/05/08 09:02:55;;;;;;;49.97;5.15;;;26.80;8.80;;;;;;5021982;28;20076;-68
2022/05/08 09:05:27;;;;;;;49.45;5.47;;;26.80;8.80;;;;;;5023118;28;20101;-66
2022/05/08 09:07:54;;;;;;;57.85;5.97;;;26.80;9.00;;;;;;5022229;28;20485;-65
2022/05/08 09:10:26;;;;;;;60.90;5.00;;;26.80;9.20;;;;;;5024803;28;20057;-66
2022/05/08 09:12:52;;;;;;;85.55;7.25;;;26.70;9.80;;;;;;5023004;28;20084;-66
2022/05/08 09:15:24;;;;;;;64.10;5.45;;;26.70;9.40;;;;;;5023084;28;20511;-69
2022/05/08 09:17:53;;;;;;;98.15;8.10;;;26.70;9.20;;;;;;5017837;28;20218;-68
2022/05/08 09:20:33;;;;;;;112.20;8.73;;;26.60;9.50;;;;;;5023127;28;20067;-66
2022/05/08 09:23:07;;;;;;;112.20;10.40;;;26.60;9.30;;;;;;5026586;28;20093;-66
2022/05/08 09:25:49;;;;;;;124.68;11.32;;;26.50;9.40;;;;;;5004933;28;20090;-65
2022/05/08 09:28:32;;;;;;;80.65;10.15;;;26.50;9.50;;;;;;5022879;28;20117;-66
2022/05/08 09:31:05;;;;;;;109.30;13.85;;;26.50;9.40;;;;;;5021880;28;20095;-66
2022/05/08 09:33:39;;;;;;;102.18;12.15;;;26.50;9.50;;;;;;5022078;28;20080;-67
2022/05/08 09:36:09;;;;;;;95.20;10.20;;;26.40;9.30;;;;;;5023716;28;20064;-65
2022/05/08 09:38:46;;;;;;;122.55;13.90;;;26.40;9.40;;;;;;5023502;28;20510;-67
2022/05/08 09:41:15;;;;;;;93.55;11.05;;;26.40;9.30;;;;;;5024575;28;20067;-65
2022/05/08 09:43:42;;;;;;;99.57;11.95;;;26.40;9.20;;;;;;5020169;28;20100;-68
2022/05/08 09:46:09;;;;;;;102.70;9.88;;;26.40;9.30;;;;;;5022424;28;20139;-66
2022/05/08 09:48:36;;;;;;;100.57;9.77;;;26.40;9.40;;;;;;5022565;28;20676;-68
2022/05/08 09:51:05;;;;;;;78.18;7.55;;;26.40;9.20;;;;;;5003894;28;20190;-67
2022/05/08 09:53:33;;;;;;;78.95;8.68;;;26.40;9.10;;;;;;5004036;28;20120;-69
2022/05/08 09:56:02;;;;;;;84.82;7.68;;;26.50;8.90;;;;;;5019289;28;20065;-66
2022/05/08 09:58:29;;;;;;;86.15;8.02;;;26.50;8.90;;;;;;5025301;28;20169;-66
2022/05/08 10:00:56;;;;;;;85.22;8.25;;;26.50;9.00;;;;;;5022878;28;20074;-67
2022/05/08 10:03:23;;;;;;;71.95;7.85;;;26.50;9.00;;;;;;5022313;28;20066;-65
2022/05/08 10:05:50;;;;;;;76.78;9.07;;;26.50;9.00;;;;;;5019301;28;20095;-67
2022/05/08 10:08:22;;;;;;;82.05;9.18;;;26.50;9.20;;;;;;5022641;28;20109;-69
2022/05/08 10:14:05;;;;;;;84.60;8.90;;;26.40;9.50;;;;;;5024246;28;20104;-67
2022/05/08 10:17:12;;;;;;;90.72;8.25;;;26.40;9.60;;;;;;5040197;28;20102;-68
2022/05/08 10:19:45;;;;;;;70.57;8.20;;;26.30;9.50;;;;;;4953194;28;20494;-69
2022/05/08 10:22:14;;;;;;;78.75;9.75;;;26.30;9.60;;;;;;4969105;28;20072;-67
2022/05/08 10:24:52;;;;;;;107.25;9.50;;;26.30;9.50;;;;;;5057536;22;20127;-67
2022/05/08 10:27:31;;;;;;;77.95;9.07;;;26.30;9.40;;;;;;5058123;28;20071;-67
2022/05/08 10:29:57;;;;;;;77.93;9.05;;;26.30;9.50;;;;;;5058903;28;20523;-66
2022/05/08 10:32:32;;;;;;;98.28;8.60;;;26.30;9.50;;;;;;5057014;28;20734;-67
2022/05/08 10:35:21;;;;;;;95.15;8.80;;;26.20;9.50;;;;;;5057107;28;20117;-68
2022/05/08 10:37:52;;;;;;;94.43;9.10;;;26.20;10.00;;;;;;5058901;28;20120;-65
2022/05/08 10:40:24;;;;;;;102.53;9.80;;;26.20;9.60;;;;;;5040820;28;20167;-66
2022/05/08 10:42:52;;;;;;;102.75;7.55;;;26.20;9.60;;;;;;5056834;28;20067;-68
2022/05/08 10:45:34;;;;;;;67.53;7.20;;;26.20;9.50;;;;;;5056592;28;20590;-66
2022/05/08 10:48:11;;;;;;;89.00;8.77;;;26.20;9.70;;;;;;5057249;28;20078;-66
2022/05/08 10:50:45;;;;;;;107.63;8.50;;;26.20;9.60;;;;;;5050106;28;20431;-69
2022/05/08 10:53:36;;;;;;;83.88;7.63;;;26.20;9.70;;;;;;5037645;28;20091;-66
2022/05/08 10:56:10;;;;;;;81.00;6.18;;;26.10;9.70;;;;;;5040393;28;20081;-66
2022/05/08 10:58:38;;;;;;;102.10;9.88;;;26.10;9.80;;;;;;5037499;28;20075;-65
2022/05/08 11:01:09;;;;;;;128.13;10.35;;;26.10;9.70;;;;;;5037009;28;20158;-66
2022/05/08 11:03:36;;;;;;;124.97;11.43;;;26.10;9.70;;;;;;5041575;28;20150;-69
2022/05/08 11:06:04;;;;;;;152.32;10.80;;;26.20;9.30;;;;;;5036075;28;20521;-68
2022/05/08 11:08:33;;;;;;;99.15;7.72;;;26.20;9.40;;;;;;5039472;28;20552;-66
2022/05/08 11:11:12;;;;;;;328.35;20.70;;;26.30;9.40;;;;;;5040932;28;20074;-66
2022/05/08 11:13:42;;;;;;;106.88;9.95;;;26.40;9.20;;;;;;5051533;28;20136;-66
2022/05/08 11:16:09;;;;;;;109.78;8.63;;;26.40;9.30;;;;;;5033862;28;20093;-67
2022/05/08 11:18:36;;;;;;;93.05;8.48;;;26.40;9.40;;;;;;5035439;28;20078;-68
2022/05/08 11:21:05;;;;;;;95.13;7.57;;;26.40;9.60;;;;;;5035299;28;21321;-69
2022/05/08 11:23:36;;;;;;;109.25;9.45;;;26.50;9.70;;;;;;5038098;28;20107;-67
2022/05/08 11:26:09;;;;;;;63.55;5.90;;;26.50;9.60;;;;;;5034499;28;20065;-67
2022/05/08 11:28:49;;;;;;;66.28;6.65;;;26.50;9.70;;;;;;5041984;28;20082;-66
2022/05/08 11:31:18;;;;;;;70.22;7.28;;;26.50;9.90;;;;;;5038018;28;20073;-68
2022/05/08 11:36:35;;;;;;;124.40;9.35;;;26.60;10.20;;;;;;5037741;28;20184;-67
2022/05/08 11:39:03;;;;;;;126.47;10.18;;;26.80;10.50;;;;;;5036329;28;20112;-67
2022/05/08 11:41:37;;;;;;;63.10;7.47;;;26.80;10.40;;;;;;5040167;28;20077;-67
2022/05/08 11:44:18;;;;;;;89.35;8.02;;;26.90;10.60;;;;;;5045883;28;20074;-67
2022/05/08 11:46:58;;;;;;;66.03;7.78;;;26.80;10.80;;;;;;5036285;28;20165;-67
2022/05/08 11:49:32;;;;;;;79.18;7.50;;;26.80;10.80;;;;;;5040301;28;20169;-66
2022/05/08 11:52:01;;;;;;;122.25;9.65;;;26.90;11.00;;;;;;5041272;28;20072;-66
2022/05/08 11:54:32;;;;;;;93.63;8.20;;;26.90;11.10;;;;;;5039103;28;20077;-66
2022/05/08 11:57:21;;;;;;;56.85;5.88;;;26.90;11.20;;;;;;5037975;28;20069;-66
2022/05/08 12:00:06;;;;;;;73.63;7.22;;;26.90;11.40;;;;;;5039690;28;20075;-67
2022/05/08 12:02:51;;;;;;;56.22;5.88;;;26.90;11.70;;;;;;5040625;28;20568;-66
2022/05/08 12:05:19;;;;;;;68.47;7.20;;;26.70;12.00;;;;;;5037314;28;20531;-66
2022/05/08 12:07:45;;;;;;;59.38;5.85;;;26.70;12.10;;;;;;5038064;28;20099;-66
2022/05/08 12:10:18;;;;;;;52.63;5.65;;;26.60;12.20;;;;;;5037919;28;20636;-66
2022/05/08 12:12:46;;;;;;;66.93;6.05;;;26.50;12.40;;;;;;5036999;28;21269;-66
2022/05/08 12:15:22;;;;;;;61.42;6.55;;;26.50;12.40;;;;;;5036983;28;20510;-65
2022/05/08 12:17:49;;;;;;;63.97;6.40;;;26.40;12.40;;;;;;5034552;28;20075;-65
2022/05/08 12:20:18;;;;;;;28.60;4.03;;;26.30;12.80;;;;;;5040368;28;20081;-65
2022/05/08 12:22:56;;;;;;;22.25;4.18;;;26.30;13.40;;;;;;5034921;28;20072;-67
2022/05/08 12:25:23;;;;;;;17.77;2.97;;;26.20;14.10;;;;;;5039124;28;20081;-65
2022/05/08 12:27:49;;;;;;;16.10;2.60;;;26.10;14.80;;;;;;5038799;28;20076;-66
2022/05/08 12:30:16;;;;;;;15.13;2.75;;;25.90;15.60;;;;;;5017928;28;20099;-66
2022/05/08 12:32:42;;;;;;;12.50;2.95;;;25.80;15.80;;;;;;5036316;28;20074;-67
2022/05/08 12:35:09;;;;;;;14.73;2.95;;;25.70;16.00;;;;;;5040540;28;20096;-68
2022/05/08 12:37:39;;;;;;;10.68;2.42;;;25.70;16.30;;;;;;5030943;28;20073;-67
2022/05/08 12:40:07;;;;;;;7.35;2.30;;;25.60;16.50;;;;;;5039754;28;20079;-67
2022/05/08 12:42:34;;;;;;;13.63;2.67;;;25.60;16.80;;;;;;5043981;28;20064;-67
2022/05/08 12:45:00;;;;;;;12.63;2.50;;;25.60;17.20;;;;;;5044198;28;20075;-67
2022/05/08 12:47:27;;;;;;;14.82;2.45;;;25.50;18.10;;;;;;5041882;28;20101;-67
2022/05/08 12:49:53;;;;;;;7.93;2.65;;;25.50;17.90;;;;;;5040140;28;20132;-67
2022/05/08 12:52:20;;;;;;;14.23;2.67;;;25.30;18.50;;;;;;5039661;28;20080;-68
2022/05/08 12:54:47;;;;;;;12.20;2.92;;;25.10;19.30;;;;;;5043515;28;20190;-69
2022/05/08 13:00:01;;;;;;;10.30;2.47;;;24.90;19.70;;;;;;5013887;28;20182;-66
2022/05/08 13:02:27;;;;;;;8.43;2.70;;;24.80;19.60;;;;;;5038949;28;20546;-68
2022/05/08 13:04:54;;;;;;;10.73;3.25;;;24.70;19.50;;;;;;5039336;28;20136;-69
2022/05/08 13:07:20;;;;;;;8.48;2.30;;;24.70;19.30;;;;;;5041728;28;20159;-67
2022/05/08 13:09:47;;;;;;;15.90;2.92;;;24.70;19.60;;;;;;5038299;28;20075;-67
2022/05/08 13:12:13;;;;;;;15.00;2.63;;;24.70;20.80;;;;;;5040569;28;20067;-66